sensor_id;sensor_type;location;lat;lon;timestamp;P1;durP1;ratioP1;P2;durP2;ratioP2
61373;SDS011;47242;48.158;-1.586;2022-10-31T05:32:36;3.17;;;2.17;;
61373;SDS011;47242;48.158;-1.586;2022-10-31T05:35:10;7.18;;;2.40;;
61373;SDS011;47242;48.158;-1.586;2022-10-31T05:37:37;11.20;;;2.58;;
61373;SDS011;47242;48.158;-1.586;2022-10-31T05:40:03;5.55;;;2.75;;
61373;SDS011;47242;48.158;-1.586;2022-10-31T05:42:30;9.40;;;2.38;;
61373;SDS011;47242;48.158;-1.586;2022-10-31T05:44:56;3.78;;;2.28;;
61373;SDS011;47242;48.158;-1.586;2022-10-31T05:47:22;7.30;;;2.67;;
61373;SDS011;47242;48.158;-1.586;2022-10-31T05:49:47;5.88;;;2.63;;
61373;SDS011;47242;48.158;-1.586;2022-10-31T05:52:13;8.75;;;2.53;;
61373;SDS011;47242;48.158;-1.586;2022-10-31T05:54:39;8.07;;;2.92;;
61373;SDS011;47242;48.158;-1.586;2022-10-31T05:57:05;8.60;;;2.33;;
61373;SDS011;47242;48.158;-1.586;2022-10-31T05:59:30;10.70;;;3.05;;
61373;SDS011;47242;48.158;-1.586;2022-10-31T06:01:56;5.00;;;2.63;;
61373;SDS011;47242;48.158;-1.586;2022-10-31T06:04:22;7.38;;;2.60;;
61373;SDS011;47242;48.158;-1.586;2022-10-31T06:06:47;6.25;;;3.13;;
61373;SDS011;47242;48.158;-1.586;2022-10-31T06:09:13;4.88;;;2.70;;
61373;SDS011;47242;48.158;-1.586;2022-10-31T06:11:38;7.53;;;3.40;;
61373;SDS011;47242;48.158;-1.586;2022-10-31T06:14:04;7.30;;;3.35;;
61373;SDS011;47242;48.158;-1.586;2022-10-31T06:16:30;7.72;;;3.30;;
61373;SDS011;47242;48.158;-1.586;2022-10-31T06:18:56;5.57;;;3.15;;
61373;SDS011;47242;48.158;-1.586;2022-10-31T06:21:22;9.05;;;4.30;;
61373;SDS011;47242;48.158;-1.586;2022-10-31T06:23:48;9.85;;;2.95;;
61373;SDS011;47242;48.158;-1.586;2022-10-31T06:26:14;7.45;;;3.47;;
61373;SDS011;47242;48.158;-1.586;2022-10-31T06:28:39;7.78;;;3.22;;
61373;SDS011;47242;48.158;-1.586;2022-10-31T06:31:05;9.73;;;3.53;;
61373;SDS011;47242;48.158;-1.586;2022-10-31T06:33:31;13.18;;;3.55;;
61373;SDS011;47242;48.158;-1.586;2022-10-31T06:35:57;9.85;;;3.58;;
61373;SDS011;47242;48.158;-1.586;2022-10-31T06:38:24;6.45;;;3.72;;
61373;SDS011;47242;48.158;-1.586;2022-10-31T06:40:51;9.45;;;3.63;;
61373;SDS011;47242;48.158;-1.586;2022-10-31T06:43:17;14.02;;;4.40;;
61373;SDS011;47242;48.158;-1.586;2022-10-31T06:45:43;12.70;;;3.55;;
61373;SDS011;47242;48.158;-1.586;2022-10-31T06:48:09;12.93;;;3.95;;
61373;SDS011;47242;48.158;-1.586;2022-10-31T06:50:34;12.30;;;3.72;;
61373;SDS011;47242;48.158;-1.586;2022-10-31T06:53:00;4.65;;;3.10;;
61373;SDS011;47242;48.158;-1.586;2022-10-31T06:55:28;5.32;;;2.83;;
61373;SDS011;47242;48.158;-1.586;2022-10-31T06:57:57;6.53;;;3.20;;
61373;SDS011;47242;48.158;-1.586;2022-10-31T07:00:25;4.28;;;2.30;;
61373;SDS011;47242;48.158;-1.586;2022-10-31T07:02:56;4.18;;;2.05;;
61373;SDS011;47242;48.158;-1.586;2022-10-31T07:05:22;13.25;;;3.00;;
61373;SDS011;47242;48.158;-1.586;2022-10-31T07:07:52;8.02;;;3.10;;
61373;SDS011;47242;48.158;-1.586;2022-10-31T07:10:29;8.93;;;2.58;;
61373;SDS011;47242;48.158;-1.586;2022-10-31T07:13:00;9.27;;;2.85;;
61373;SDS011;47242;48.158;-1.586;2022-10-31T07:15:28;5.65;;;2.70;;
61373;SDS011;47242;48.158;-1.586;2022-10-31T07:17:59;8.32;;;3.28;;
61373;SDS011;47242;48.158;-1.586;2022-10-31T07:20:26;4.72;;;3.05;;
61373;SDS011;47242;48.158;-1.586;2022-10-31T07:22:52;5.60;;;2.90;;
61373;SDS011;47242;48.158;-1.586;2022-10-31T07:25:18;5.78;;;2.97;;
61373;SDS011;47242;48.158;-1.586;2022-10-31T07:27:44;6.60;;;2.90;;
61373;SDS011;47242;48.158;-1.586;2022-10-31T07:30:10;5.80;;;3.15;;
61373;SDS011;47242;48.158;-1.586;2022-10-31T07:32:40;7.22;;;2.85;;
61373;SDS011;47242;48.158;-1.586;2022-10-31T07:35:08;6.82;;;3.70;;
61373;SDS011;47242;48.158;-1.586;2022-10-31T07:37:35;8.82;;;3.20;;
61373;SDS011;47242;48.158;-1.586;2022-10-31T07:40:02;6.72;;;2.75;;
61373;SDS011;47242;48.158;-1.586;2022-10-31T07:42:28;5.55;;;2.88;;
61373;SDS011;47242;48.158;-1.586;2022-10-31T07:44:53;5.03;;;2.58;;
61373;SDS011;47242;48.158;-1.586;2022-10-31T07:47:19;6.05;;;3.17;;
61373;SDS011;47242;48.158;-1.586;2022-10-31T07:49:45;4.40;;;2.78;;
61373;SDS011;47242;48.158;-1.586;2022-10-31T07:52:10;4.78;;;3.10;;
61373;SDS011;47242;48.158;-1.586;2022-10-31T07:54:36;5.50;;;2.88;;
61373;SDS011;47242;48.158;-1.586;2022-10-31T07:57:02;5.47;;;3.00;;
61373;SDS011;47242;48.158;-1.586;2022-10-31T07:59:27;6.28;;;3.28;;
61373;SDS011;47242;48.158;-1.586;2022-10-31T08:01:53;7.13;;;3.33;;
61373;SDS011;47242;48.158;-1.586;2022-10-31T08:04:20;6.28;;;2.90;;
61373;SDS011;47242;48.158;-1.586;2022-10-31T08:06:45;6.57;;;3.38;;
61373;SDS011;47242;48.158;-1.586;2022-10-31T08:09:13;8.68;;;3.63;;
61373;SDS011;47242;48.158;-1.586;2022-10-31T08:11:39;7.25;;;3.63;;
61373;SDS011;47242;48.158;-1.586;2022-10-31T08:14:04;6.18;;;3.60;;
61373;SDS011;47242;48.158;-1.586;2022-10-31T08:16:30;8.23;;;3.35;;
61373;SDS011;47242;48.158;-1.586;2022-10-31T08:18:56;9.77;;;3.67;;
61373;SDS011;47242;48.158;-1.586;2022-10-31T08:21:21;6.45;;;3.22;;
61373;SDS011;47242;48.158;-1.586;2022-10-31T08:23:50;9.52;;;3.58;;
61373;SDS011;47242;48.158;-1.586;2022-10-31T08:26:16;6.68;;;3.38;;
61373;SDS011;47242;48.158;-1.586;2022-10-31T08:28:41;7.25;;;2.90;;
61373;SDS011;47242;48.158;-1.586;2022-10-31T08:31:07;8.68;;;3.30;;
61373;SDS011;47242;48.158;-1.586;2022-10-31T08:33:34;6.30;;;3.00;;
61373;SDS011;47242;48.158;-1.586;2022-10-31T08:35:59;6.30;;;3.28;;
61373;SDS011;47242;48.158;-1.586;2022-10-31T08:38:25;6.90;;;3.70;;
61373;SDS011;47242;48.158;-1.586;2022-10-31T08:40:50;7.57;;;3.75;;
61373;SDS011;47242;48.158;-1.586;2022-10-31T08:43:16;6.13;;;3.50;;
61373;SDS011;47242;48.158;-1.586;2022-10-31T08:45:44;5.05;;;3.45;;
61373;SDS011;47242;48.158;-1.586;2022-10-31T08:48:13;5.00;;;3.53;;
61373;SDS011;47242;48.158;-1.586;2022-10-31T08:50:40;7.95;;;3.55;;
61373;SDS011;47242;48.158;-1.586;2022-10-31T08:53:09;5.72;;;3.28;;
61373;SDS011;47242;48.158;-1.586;2022-10-31T08:55:40;4.95;;;3.03;;
61373;SDS011;47242;48.158;-1.586;2022-10-31T08:58:08;8.38;;;3.97;;
61373;SDS011;47242;48.158;-1.586;2022-10-31T09:00:36;7.32;;;3.50;;
61373;SDS011;47242;48.158;-1.586;2022-10-31T09:03:03;5.57;;;3.20;;
61373;SDS011;47242;48.158;-1.586;2022-10-31T09:05:31;6.00;;;3.70;;
61373;SDS011;47242;48.158;-1.586;2022-10-31T09:07:58;7.03;;;3.55;;
61373;SDS011;47242;48.158;-1.586;2022-10-31T09:10:24;6.22;;;3.45;;
61373;SDS011;47242;48.158;-1.586;2022-10-31T09:12:58;7.97;;;3.33;;
61373;SDS011;47242;48.158;-1.586;2022-10-31T09:15:31;6.50;;;2.92;;
61373;SDS011;47242;48.158;-1.586;2022-10-31T09:17:57;11.60;;;3.88;;
61373;SDS011;47242;48.158;-1.586;2022-10-31T09:20:23;3.83;;;2.85;;
61373;SDS011;47242;48.158;-1.586;2022-10-31T09:22:55;5.82;;;3.33;;
61373;SDS011;47242;48.158;-1.586;2022-10-31T09:25:25;11.73;;;4.35;;
61373;SDS011;47242;48.158;-1.586;2022-10-31T09:27:54;5.60;;;3.30;;
61373;SDS011;47242;48.158;-1.586;2022-10-31T09:30:24;5.95;;;3.50;;
61373;SDS011;47242;48.158;-1.586;2022-10-31T09:33:01;6.90;;;4.35;;
61373;SDS011;47242;48.158;-1.586;2022-10-31T09:35:29;6.40;;;3.88;;
61373;SDS011;47242;48.158;-1.586;2022-10-31T09:37:55;6.53;;;4.07;;
61373;SDS011;47242;48.158;-1.586;2022-10-31T09:40:23;6.22;;;3.45;;
61373;SDS011;47242;48.158;-1.586;2022-10-31T09:42:56;10.25;;;4.40;;
61373;SDS011;47242;48.158;-1.586;2022-10-31T09:45:39;14.32;;;4.30;;
61373;SDS011;47242;48.158;-1.586;2022-10-31T09:48:23;6.82;;;3.60;;
61373;SDS011;47242;48.158;-1.586;2022-10-31T09:56:25;10.00;;;5.10;;
61373;SDS011;47242;48.158;-1.586;2022-10-31T09:58:56;7.95;;;4.80;;
61373;SDS011;47242;48.158;-1.586;2022-10-31T10:04:30;9.23;;;4.78;;
61373;SDS011;47242;48.158;-1.586;2022-10-31T10:07:10;12.23;;;6.07;;
61373;SDS011;47242;48.158;-1.586;2022-10-31T10:09:57;11.50;;;6.07;;
61373;SDS011;47242;48.158;-1.586;2022-10-31T10:21:36;10.73;;;5.05;;
61373;SDS011;47242;48.158;-1.586;2022-10-31T10:26:58;11.05;;;5.32;;
61373;SDS011;47242;48.158;-1.586;2022-10-31T10:30:40;8.48;;;4.97;;
61373;SDS011;47242;48.158;-1.586;2022-10-31T10:32:47;8.68;;;5.00;;
61373;SDS011;47242;48.158;-1.586;2022-10-31T10:37:41;15.02;;;5.93;;
61373;SDS011;47242;48.158;-1.586;2022-10-31T10:40:16;13.10;;;6.20;;
61373;SDS011;47242;48.158;-1.586;2022-10-31T10:42:53;10.65;;;5.90;;
61373;SDS011;47242;48.158;-1.586;2022-10-31T10:51:49;9.70;;;4.72;;
61373;SDS011;47242;48.158;-1.586;2022-10-31T10:54:39;13.32;;;5.78;;
61373;SDS011;47242;48.158;-1.586;2022-10-31T10:59:54;12.40;;;5.18;;
61373;SDS011;47242;48.158;-1.586;2022-10-31T11:02:24;9.48;;;5.65;;
61373;SDS011;47242;48.158;-1.586;2022-10-31T11:04:51;13.73;;;6.80;;
61373;SDS011;47242;48.158;-1.586;2022-10-31T11:07:21;8.73;;;5.63;;
61373;SDS011;47242;48.158;-1.586;2022-10-31T11:09:47;14.85;;;7.10;;
61373;SDS011;47242;48.158;-1.586;2022-10-31T11:12:22;11.43;;;6.53;;
61373;SDS011;47242;48.158;-1.586;2022-10-31T11:14:57;11.98;;;6.88;;
61373;SDS011;47242;48.158;-1.586;2022-10-31T11:17:34;11.60;;;6.97;;
61373;SDS011;47242;48.158;-1.586;2022-10-31T11:22:46;11.05;;;6.90;;
61373;SDS011;47242;48.158;-1.586;2022-10-31T11:27:44;11.55;;;6.28;;
61373;SDS011;47242;48.158;-1.586;2022-10-31T11:30:12;11.30;;;7.43;;
61373;SDS011;47242;48.158;-1.586;2022-10-31T11:32:49;14.95;;;7.72;;
61373;SDS011;47242;48.158;-1.586;2022-10-31T11:35:19;11.70;;;8.15;;
61373;SDS011;47242;48.158;-1.586;2022-10-31T11:37:47;11.52;;;7.15;;
61373;SDS011;47242;48.158;-1.586;2022-10-31T11:40:16;11.52;;;7.22;;
61373;SDS011;47242;48.158;-1.586;2022-10-31T11:42:45;13.00;;;8.60;;
61373;SDS011;47242;48.158;-1.586;2022-10-31T11:45:26;11.85;;;7.40;;
61373;SDS011;47242;48.158;-1.586;2022-10-31T11:47:59;12.35;;;7.55;;
61373;SDS011;47242;48.158;-1.586;2022-10-31T11:50:31;12.93;;;8.35;;
61373;SDS011;47242;48.158;-1.586;2022-10-31T11:53:01;15.38;;;8.98;;
61373;SDS011;47242;48.158;-1.586;2022-10-31T11:57:58;14.20;;;8.02;;
61373;SDS011;47242;48.158;-1.586;2022-10-31T12:00:25;16.60;;;8.40;;
61373;SDS011;47242;48.158;-1.586;2022-10-31T12:05:44;12.13;;;7.55;;
61373;SDS011;47242;48.158;-1.586;2022-10-31T12:08:12;15.10;;;8.57;;
61373;SDS011;47242;48.158;-1.586;2022-10-31T12:11:22;15.32;;;8.93;;
61373;SDS011;47242;48.158;-1.586;2022-10-31T12:35:46;17.60;;;8.73;;
61373;SDS011;47242;48.158;-1.586;2022-10-31T12:43:43;12.90;;;7.38;;
61373;SDS011;47242;48.158;-1.586;2022-10-31T12:46:21;14.40;;;9.10;;
61373;SDS011;47242;48.158;-1.586;2022-10-31T12:54:19;22.83;;;9.25;;
61373;SDS011;47242;48.158;-1.586;2022-10-31T12:59:38;16.15;;;8.85;;
61373;SDS011;47242;48.158;-1.586;2022-10-31T13:05:05;16.58;;;9.10;;
61373;SDS011;47242;48.158;-1.586;2022-10-31T13:07:38;15.75;;;9.02;;
61373;SDS011;47242;48.158;-1.586;2022-10-31T13:12:54;15.68;;;9.07;;
61373;SDS011;47242;48.158;-1.586;2022-10-31T13:15:24;14.25;;;8.15;;
61373;SDS011;47242;48.158;-1.586;2022-10-31T13:17:59;15.98;;;9.15;;
61373;SDS011;47242;48.158;-1.586;2022-10-31T13:20:33;15.88;;;9.95;;
61373;SDS011;47242;48.158;-1.586;2022-10-31T13:23:12;15.98;;;9.38;;
61373;SDS011;47242;48.158;-1.586;2022-10-31T13:25:46;15.73;;;9.35;;
61373;SDS011;47242;48.158;-1.586;2022-10-31T13:28:25;17.67;;;9.30;;
61373;SDS011;47242;48.158;-1.586;2022-10-31T13:30:59;16.98;;;9.98;;
61373;SDS011;47242;48.158;-1.586;2022-10-31T13:33:36;21.92;;;9.80;;
61373;SDS011;47242;48.158;-1.586;2022-10-31T13:36:08;20.70;;;9.15;;
61373;SDS011;47242;48.158;-1.586;2022-10-31T13:46:54;16.00;;;9.18;;
61373;SDS011;47242;48.158;-1.586;2022-10-31T13:52:15;15.45;;;9.48;;
61373;SDS011;47242;48.158;-1.586;2022-10-31T13:54:42;17.48;;;9.27;;
61373;SDS011;47242;48.158;-1.586;2022-10-31T13:59:38;15.60;;;8.93;;
61373;SDS011;47242;48.158;-1.586;2022-10-31T14:02:12;22.92;;;8.98;;
61373;SDS011;47242;48.158;-1.586;2022-10-31T14:04:51;22.45;;;9.73;;
61373;SDS011;47242;48.158;-1.586;2022-10-31T14:07:26;17.80;;;9.52;;
61373;SDS011;47242;48.158;-1.586;2022-10-31T14:17:56;13.95;;;8.52;;
61373;SDS011;47242;48.158;-1.586;2022-10-31T14:20:25;17.92;;;8.48;;
61373;SDS011;47242;48.158;-1.586;2022-10-31T14:28:54;13.85;;;9.20;;
61373;SDS011;47242;48.158;-1.586;2022-10-31T14:34:37;16.00;;;8.05;;
61373;SDS011;47242;48.158;-1.586;2022-10-31T14:40:16;14.63;;;7.40;;
61373;SDS011;47242;48.158;-1.586;2022-10-31T14:53:29;11.82;;;6.90;;
61373;SDS011;47242;48.158;-1.586;2022-10-31T14:56:11;12.63;;;6.47;;
61373;SDS011;47242;48.158;-1.586;2022-10-31T14:58:44;14.40;;;7.22;;
61373;SDS011;47242;48.158;-1.586;2022-10-31T15:03:46;13.60;;;6.88;;
61373;SDS011;47242;48.158;-1.586;2022-10-31T15:06:13;14.90;;;6.28;;
61373;SDS011;47242;48.158;-1.586;2022-10-31T15:08:46;10.97;;;5.43;;
61373;SDS011;47242;48.158;-1.586;2022-10-31T15:11:18;9.25;;;5.93;;
61373;SDS011;47242;48.158;-1.586;2022-10-31T15:13:47;9.43;;;5.90;;
61373;SDS011;47242;48.158;-1.586;2022-10-31T15:16:15;12.40;;;6.03;;
61373;SDS011;47242;48.158;-1.586;2022-10-31T15:18:48;14.40;;;6.18;;
61373;SDS011;47242;48.158;-1.586;2022-10-31T15:21:19;12.90;;;6.70;;
61373;SDS011;47242;48.158;-1.586;2022-10-31T15:23:46;7.93;;;4.60;;
61373;SDS011;47242;48.158;-1.586;2022-10-31T15:26:16;9.10;;;5.68;;
61373;SDS011;47242;48.158;-1.586;2022-10-31T15:28:43;8.82;;;6.00;;
61373;SDS011;47242;48.158;-1.586;2022-10-31T15:31:14;9.40;;;3.33;;
61373;SDS011;47242;48.158;-1.586;2022-10-31T15:33:42;5.22;;;3.17;;
61373;SDS011;47242;48.158;-1.586;2022-10-31T15:36:18;8.35;;;3.40;;
61373;SDS011;47242;48.158;-1.586;2022-10-31T15:38:46;5.53;;;3.28;;
61373;SDS011;47242;48.158;-1.586;2022-10-31T15:41:19;8.35;;;3.30;;
61373;SDS011;47242;48.158;-1.586;2022-10-31T15:43:52;7.70;;;3.33;;
61373;SDS011;47242;48.158;-1.586;2022-10-31T15:46:19;5.63;;;3.55;;
61373;SDS011;47242;48.158;-1.586;2022-10-31T15:48:45;5.15;;;3.45;;
61373;SDS011;47242;48.158;-1.586;2022-10-31T15:51:12;7.38;;;3.65;;
61373;SDS011;47242;48.158;-1.586;2022-10-31T15:53:43;9.70;;;4.97;;
61373;SDS011;47242;48.158;-1.586;2022-10-31T15:56:13;5.97;;;4.00;;
61373;SDS011;47242;48.158;-1.586;2022-10-31T15:58:50;3.42;;;2.70;;
61373;SDS011;47242;48.158;-1.586;2022-10-31T16:01:21;3.33;;;2.10;;
61373;SDS011;47242;48.158;-1.586;2022-10-31T16:06:35;4.32;;;2.05;;
61373;SDS011;47242;48.158;-1.586;2022-10-31T16:09:02;4.78;;;2.03;;
61373;SDS011;47242;48.158;-1.586;2022-10-31T16:11:34;5.70;;;2.60;;
61373;SDS011;47242;48.158;-1.586;2022-10-31T16:14:21;7.57;;;2.22;;
61373;SDS011;47242;48.158;-1.586;2022-10-31T16:16:50;7.32;;;2.03;;
61373;SDS011;47242;48.158;-1.586;2022-10-31T16:19:28;4.88;;;2.00;;
61373;SDS011;47242;48.158;-1.586;2022-10-31T16:22:13;6.28;;;2.30;;
61373;SDS011;47242;48.158;-1.586;2022-10-31T16:24:53;4.95;;;2.00;;
61373;SDS011;47242;48.158;-1.586;2022-10-31T16:27:26;5.10;;;2.15;;
61373;SDS011;47242;48.158;-1.586;2022-10-31T16:29:56;7.25;;;2.25;;
61373;SDS011;47242;48.158;-1.586;2022-10-31T16:34:58;3.72;;;2.22;;
61373;SDS011;47242;48.158;-1.586;2022-10-31T16:37:32;10.45;;;2.60;;
61373;SDS011;47242;48.158;-1.586;2022-10-31T16:39:58;5.57;;;2.25;;
61373;SDS011;47242;48.158;-1.586;2022-10-31T16:42:24;5.65;;;2.10;;
61373;SDS011;47242;48.158;-1.586;2022-10-31T16:44:51;3.28;;;1.90;;
61373;SDS011;47242;48.158;-1.586;2022-10-31T16:47:16;4.25;;;2.42;;
61373;SDS011;47242;48.158;-1.586;2022-10-31T16:49:43;8.15;;;2.60;;
61373;SDS011;47242;48.158;-1.586;2022-10-31T16:52:11;8.50;;;2.55;;
61373;SDS011;47242;48.158;-1.586;2022-10-31T16:54:37;7.28;;;2.33;;
61373;SDS011;47242;48.158;-1.586;2022-10-31T16:57:04;6.20;;;2.35;;
61373;SDS011;47242;48.158;-1.586;2022-10-31T16:59:34;4.68;;;2.15;;
61373;SDS011;47242;48.158;-1.586;2022-10-31T17:02:00;4.45;;;2.70;;
61373;SDS011;47242;48.158;-1.586;2022-10-31T17:04:28;7.57;;;2.67;;
61373;SDS011;47242;48.158;-1.586;2022-10-31T17:06:53;5.22;;;2.15;;
61373;SDS011;47242;48.158;-1.586;2022-10-31T17:09:19;6.75;;;2.65;;
61373;SDS011;47242;48.158;-1.586;2022-10-31T17:11:46;6.13;;;2.45;;
61373;SDS011;47242;48.158;-1.586;2022-10-31T17:14:14;6.18;;;2.45;;
61373;SDS011;47242;48.158;-1.586;2022-10-31T17:16:41;7.88;;;2.70;;
61373;SDS011;47242;48.158;-1.586;2022-10-31T17:19:09;7.13;;;3.25;;
61373;SDS011;47242;48.158;-1.586;2022-10-31T17:21:35;8.13;;;2.20;;
61373;SDS011;47242;48.158;-1.586;2022-10-31T17:24:02;11.35;;;3.55;;
61373;SDS011;47242;48.158;-1.586;2022-10-31T17:26:28;6.30;;;2.55;;
61373;SDS011;47242;48.158;-1.586;2022-10-31T17:28:53;5.82;;;2.38;;
61373;SDS011;47242;48.158;-1.586;2022-10-31T17:31:25;7.35;;;2.45;;
61373;SDS011;47242;48.158;-1.586;2022-10-31T17:33:54;5.00;;;2.53;;
61373;SDS011;47242;48.158;-1.586;2022-10-31T17:36:29;4.93;;;2.05;;
61373;SDS011;47242;48.158;-1.586;2022-10-31T17:39:15;7.43;;;2.33;;
61373;SDS011;47242;48.158;-1.586;2022-10-31T17:41:41;5.43;;;2.70;;
61373;SDS011;47242;48.158;-1.586;2022-10-31T17:44:09;6.40;;;2.38;;
61373;SDS011;47242;48.158;-1.586;2022-10-31T17:46:35;7.68;;;3.90;;
61373;SDS011;47242;48.158;-1.586;2022-10-31T17:49:01;6.07;;;2.47;;
61373;SDS011;47242;48.158;-1.586;2022-10-31T17:51:29;9.38;;;3.22;;
61373;SDS011;47242;48.158;-1.586;2022-10-31T17:53:55;7.32;;;2.78;;
61373;SDS011;47242;48.158;-1.586;2022-10-31T17:56:22;6.40;;;3.08;;
61373;SDS011;47242;48.158;-1.586;2022-10-31T17:58:47;5.07;;;2.17;;
61373;SDS011;47242;48.158;-1.586;2022-10-31T18:01:14;6.88;;;2.58;;
61373;SDS011;47242;48.158;-1.586;2022-10-31T18:03:41;7.53;;;3.08;;
61373;SDS011;47242;48.158;-1.586;2022-10-31T18:06:07;6.32;;;2.78;;
61373;SDS011;47242;48.158;-1.586;2022-10-31T18:08:35;6.47;;;2.53;;
61373;SDS011;47242;48.158;-1.586;2022-10-31T18:11:10;9.02;;;2.85;;
61373;SDS011;47242;48.158;-1.586;2022-10-31T18:13:38;9.82;;;3.20;;
61373;SDS011;47242;48.158;-1.586;2022-10-31T18:16:11;4.68;;;2.10;;
61373;SDS011;47242;48.158;-1.586;2022-10-31T18:18:48;6.28;;;2.70;;
61373;SDS011;47242;48.158;-1.586;2022-10-31T18:21:17;8.48;;;3.42;;
61373;SDS011;47242;48.158;-1.586;2022-10-31T18:23:44;7.45;;;3.28;;
61373;SDS011;47242;48.158;-1.586;2022-10-31T18:26:09;10.15;;;2.90;;
61373;SDS011;47242;48.158;-1.586;2022-10-31T18:28:35;6.45;;;3.05;;
61373;SDS011;47242;48.158;-1.586;2022-10-31T18:31:02;6.78;;;2.97;;
61373;SDS011;47242;48.158;-1.586;2022-10-31T18:33:35;2.58;;;1.83;;
61373;SDS011;47242;48.158;-1.586;2022-10-31T18:36:06;6.00;;;2.95;;
61373;SDS011;47242;48.158;-1.586;2022-10-31T18:38:32;7.32;;;2.20;;
61373;SDS011;47242;48.158;-1.586;2022-10-31T18:41:01;4.43;;;2.03;;
61373;SDS011;47242;48.158;-1.586;2022-10-31T18:43:26;5.13;;;2.20;;
61373;SDS011;47242;48.158;-1.586;2022-10-31T18:45:52;4.40;;;1.63;;
61373;SDS011;47242;48.158;-1.586;2022-10-31T18:51:21;3.38;;;1.50;;
61373;SDS011;47242;48.158;-1.586;2022-10-31T18:54:01;8.35;;;2.20;;
61373;SDS011;47242;48.158;-1.586;2022-10-31T18:56:48;3.53;;;1.63;;
61373;SDS011;47242;48.158;-1.586;2022-10-31T18:59:40;3.28;;;1.30;;
61373;SDS011;47242;48.158;-1.586;2022-10-31T19:05:31;5.28;;;1.60;;
61373;SDS011;47242;48.158;-1.586;2022-10-31T19:07:57;6.40;;;1.08;;
61373;SDS011;47242;48.158;-1.586;2022-10-31T19:10:22;6.65;;;1.42;;
61373;SDS011;47242;48.158;-1.586;2022-10-31T19:12:48;3.97;;;0.98;;
61373;SDS011;47242;48.158;-1.586;2022-10-31T19:15:13;7.15;;;1.20;;
61373;SDS011;47242;48.158;-1.586;2022-10-31T19:17:39;3.92;;;1.00;;
61373;SDS011;47242;48.158;-1.586;2022-10-31T19:20:05;7.82;;;1.50;;
61373;SDS011;47242;48.158;-1.586;2022-10-31T19:22:31;6.35;;;1.80;;
61373;SDS011;47242;48.158;-1.586;2022-10-31T19:24:57;3.97;;;1.20;;
61373;SDS011;47242;48.158;-1.586;2022-10-31T19:27:22;7.43;;;1.10;;
61373;SDS011;47242;48.158;-1.586;2022-10-31T19:29:51;4.20;;;1.02;;
61373;SDS011;47242;48.158;-1.586;2022-10-31T19:32:17;5.15;;;0.95;;
61373;SDS011;47242;48.158;-1.586;2022-10-31T19:34:42;5.15;;;1.15;;
61373;SDS011;47242;48.158;-1.586;2022-10-31T19:37:09;6.55;;;1.27;;
61373;SDS011;47242;48.158;-1.586;2022-10-31T19:39:35;7.32;;;1.67;;
61373;SDS011;47242;48.158;-1.586;2022-10-31T19:42:03;4.78;;;1.10;;
61373;SDS011;47242;48.158;-1.586;2022-10-31T19:44:29;7.07;;;1.20;;
61373;SDS011;47242;48.158;-1.586;2022-10-31T19:46:56;6.75;;;1.05;;
61373;SDS011;47242;48.158;-1.586;2022-10-31T19:49:21;6.00;;;1.08;;
61373;SDS011;47242;48.158;-1.586;2022-10-31T19:51:47;5.60;;;1.77;;
61373;SDS011;47242;48.158;-1.586;2022-10-31T19:54:13;7.55;;;1.40;;
61373;SDS011;47242;48.158;-1.586;2022-10-31T19:56:39;6.32;;;1.42;;
61373;SDS011;47242;48.158;-1.586;2022-10-31T19:59:05;8.20;;;1.67;;
61373;SDS011;47242;48.158;-1.586;2022-10-31T20:01:33;5.60;;;1.45;;
61373;SDS011;47242;48.158;-1.586;2022-10-31T20:03:59;4.72;;;1.20;;
61373;SDS011;47242;48.158;-1.586;2022-10-31T20:06:26;11.23;;;1.60;;
61373;SDS011;47242;48.158;-1.586;2022-10-31T20:08:53;11.65;;;1.95;;
61373;SDS011;47242;48.158;-1.586;2022-10-31T20:11:20;9.10;;;2.38;;
61373;SDS011;47242;48.158;-1.586;2022-10-31T20:13:47;10.77;;;2.10;;
61373;SDS011;47242;48.158;-1.586;2022-10-31T20:16:13;5.65;;;1.17;;
61373;SDS011;47242;48.158;-1.586;2022-10-31T20:18:40;7.25;;;1.70;;
61373;SDS011;47242;48.158;-1.586;2022-10-31T20:21:08;7.18;;;1.42;;
61373;SDS011;47242;48.158;-1.586;2022-10-31T20:23:35;7.88;;;1.70;;
61373;SDS011;47242;48.158;-1.586;2022-10-31T20:26:02;4.30;;;1.05;;
61373;SDS011;47242;48.158;-1.586;2022-10-31T20:28:28;5.28;;;1.65;;
61373;SDS011;47242;48.158;-1.586;2022-10-31T20:30:56;1.98;;;1.00;;
61373;SDS011;47242;48.158;-1.586;2022-10-31T20:33:22;5.15;;;1.55;;
61373;SDS011;47242;48.158;-1.586;2022-10-31T20:35:57;4.70;;;1.42;;
61373;SDS011;47242;48.158;-1.586;2022-10-31T20:38:26;3.97;;;1.45;;
61373;SDS011;47242;48.158;-1.586;2022-10-31T20:40:52;5.50;;;1.60;;
61373;SDS011;47242;48.158;-1.586;2022-10-31T20:43:22;5.32;;;1.52;;
61373;SDS011;47242;48.158;-1.586;2022-10-31T20:45:48;7.60;;;1.20;;
61373;SDS011;47242;48.158;-1.586;2022-10-31T20:48:14;6.22;;;1.27;;
61373;SDS011;47242;48.158;-1.586;2022-10-31T20:50:39;5.05;;;1.45;;
61373;SDS011;47242;48.158;-1.586;2022-10-31T20:53:05;6.10;;;0.90;;
61373;SDS011;47242;48.158;-1.586;2022-10-31T20:55:31;3.60;;;1.30;;
61373;SDS011;47242;48.158;-1.586;2022-10-31T20:57:56;3.95;;;1.52;;
61373;SDS011;47242;48.158;-1.586;2022-10-31T21:00:22;9.23;;;1.83;;
61373;SDS011;47242;48.158;-1.586;2022-10-31T21:02:48;9.02;;;1.48;;
61373;SDS011;47242;48.158;-1.586;2022-10-31T21:05:13;5.45;;;1.00;;
61373;SDS011;47242;48.158;-1.586;2022-10-31T21:07:39;4.88;;;1.40;;
61373;SDS011;47242;48.158;-1.586;2022-10-31T21:10:05;6.10;;;1.10;;
61373;SDS011;47242;48.158;-1.586;2022-10-31T21:12:43;8.40;;;1.58;;
61373;SDS011;47242;48.158;-1.586;2022-10-31T21:15:18;4.38;;;1.98;;
61373;SDS011;47242;48.158;-1.586;2022-10-31T21:17:43;6.53;;;1.17;;
61373;SDS011;47242;48.158;-1.586;2022-10-31T21:20:09;8.20;;;1.33;;
61373;SDS011;47242;48.158;-1.586;2022-10-31T21:22:35;7.00;;;1.50;;
61373;SDS011;47242;48.158;-1.586;2022-10-31T21:25:01;4.60;;;1.27;;
61373;SDS011;47242;48.158;-1.586;2022-10-31T21:27:27;9.25;;;1.55;;
61373;SDS011;47242;48.158;-1.586;2022-10-31T21:29:52;6.68;;;1.70;;
61373;SDS011;47242;48.158;-1.586;2022-10-31T21:32:26;8.18;;;1.88;;
61373;SDS011;47242;48.158;-1.586;2022-10-31T21:34:52;8.05;;;1.50;;
61373;SDS011;47242;48.158;-1.586;2022-10-31T21:37:18;4.43;;;1.35;;
61373;SDS011;47242;48.158;-1.586;2022-10-31T21:39:43;6.45;;;1.70;;
61373;SDS011;47242;48.158;-1.586;2022-10-31T21:42:09;4.97;;;0.98;;
61373;SDS011;47242;48.158;-1.586;2022-10-31T21:44:34;6.57;;;1.58;;
61373;SDS011;47242;48.158;-1.586;2022-10-31T21:47:00;5.07;;;1.48;;
61373;SDS011;47242;48.158;-1.586;2022-10-31T21:49:26;5.60;;;1.52;;
61373;SDS011;47242;48.158;-1.586;2022-10-31T21:51:51;5.68;;;1.65;;
61373;SDS011;47242;48.158;-1.586;2022-10-31T21:54:17;6.22;;;1.40;;
61373;SDS011;47242;48.158;-1.586;2022-10-31T21:56:52;9.52;;;1.52;;
61373;SDS011;47242;48.158;-1.586;2022-10-31T21:59:19;5.65;;;1.23;;
61373;SDS011;47242;48.158;-1.586;2022-10-31T22:01:45;7.57;;;1.63;;
61373;SDS011;47242;48.158;-1.586;2022-10-31T22:04:10;11.15;;;2.20;;
61373;SDS011;47242;48.158;-1.586;2022-10-31T22:06:36;9.20;;;2.13;;
61373;SDS011;47242;48.158;-1.586;2022-10-31T22:09:03;8.05;;;2.00;;
61373;SDS011;47242;48.158;-1.586;2022-10-31T22:11:30;9.30;;;1.85;;
61373;SDS011;47242;48.158;-1.586;2022-10-31T22:13:57;11.18;;;1.48;;
61373;SDS011;47242;48.158;-1.586;2022-10-31T22:16:24;10.45;;;1.98;;
61373;SDS011;47242;48.158;-1.586;2022-10-31T22:18:51;8.75;;;1.40;;
61373;SDS011;47242;48.158;-1.586;2022-10-31T22:21:21;9.50;;;1.73;;
61373;SDS011;47242;48.158;-1.586;2022-10-31T22:23:48;10.67;;;1.63;;
61373;SDS011;47242;48.158;-1.586;2022-10-31T22:26:18;7.05;;;1.13;;
61373;SDS011;47242;48.158;-1.586;2022-10-31T22:28:45;12.75;;;1.55;;
